Aérodrome :
LOGIN :

S'inscrire | Disclaimer

   EN    FR    IT 

 










Légende :    VFR   VFR Marginal   IFR   IFR Intensif   IFR Très Intensif
Visi : 
Plafond : 
>= 8 km
>= 3000ft
5 à 8 km
1000 à 3000 ft
1500m à 5 km
500 à 1000 ft
800 à 1500m
200 à 500 ft
< 800m
< 200 ft
Symboles :   Orages  Brouillard  Fortes neiges  Fortes précipitations  Vent > 20 kt
SIGMETs :   Divers  Orages  Givrage  Turbulence  Onde Orograph.  Cendres Volcan.







- Altitude de l'aérodrome : 1768 ft


LEHC - Huesca Pirineos

METAR N/A
TAF TAF LEHC
Valide du 21 à 03h jusqu'au 22 à 03h UTC


210200Z 2103/2203 VRB04KT 9999 FEW030 TX34/2113Z TN18/2105Z
TEMPO 2112/2118 19008KT
BECMG 2117/2120 09010KT
Pas de NOTAMs connus pour ce terrain.
2 SIGMETs publiés pour la FIR Madrid (LECM) :
 
Orages noyés dans la masse
LECM SIGMET 7 VALID 211830/212000 LEVA
LECM MADRID FIR/UIR EMBD TS OBS AT 1822Z W OF LINE N3903 W00542 - N3801 W00627 TOP FL360 MOV S WKN=
Orages noyés dans la masse
LECM SIGMET 6 VALID 211830/212000 LEVA
LECM MADRID FIR/UIR EMBD TS OBS AT 1820Z W OF LINE N4034 W00527 - N3900 W00546 TOP FL360 MOV S WKN=



MET'MAP, la Météo Aéronautique d'un coup d'oeil ! - Copyright ORBIFLY Décembre 2007 - Disclaimer

ORBIFLY MET'MAP TEAM :

Programmation & Développement : Alexandra Zaïnal
Conception & Développement : Baudouin d'Aumeries
Co-Programmation & Développement : Marc-Olivier Méhu
Soutien technique & logistique : Manuel Goepfert

Contact : metmap@orbifly.com




SOURCES & CREDITS :

   NOAA